createdAt,value
2018-06-25T00:02:00.000Z,51.233
2018-06-25T00:11:59.000Z,51.265
2018-06-25T00:21:59.000Z,51.186
2018-06-25T00:31:59.000Z,51.195
2018-06-25T00:41:59.000Z,51.236
2018-06-25T00:51:59.000Z,51.158
2018-06-25T01:01:59.000Z,51.167
2018-06-25T01:11:59.000Z,51.2
2018-06-25T01:21:59.000Z,51.142
2018-06-25T01:31:59.000Z,51.086
2018-06-25T01:42:00.000Z,51.075
2018-06-25T01:52:00.000Z,51.008
2018-06-25T02:02:00.000Z,51.062
2018-06-25T02:12:00.000Z,51.058
2018-06-25T02:22:00.000Z,51.023
2018-06-25T02:32:00.000Z,51.001
2018-06-25T02:42:00.000Z,50.979
2018-06-25T02:52:00.000Z,50.956
2018-06-25T03:02:00.000Z,50.997
2018-06-25T03:12:00.000Z,50.918
2018-06-25T03:22:00.000Z,50.96
2018-06-25T03:32:00.000Z,50.926
2018-06-25T03:42:00.000Z,50.946
2018-06-25T03:52:00.000Z,50.891
2018-06-25T04:02:00.000Z,50.934
2018-06-25T04:12:00.000Z,50.857
2018-06-25T04:22:01.000Z,50.899
2018-06-25T04:32:00.000Z,50.791
2018-06-25T04:42:00.000Z,50.865
2018-06-25T04:52:00.000Z,50.811
2018-06-25T05:02:00.000Z,50.768
2018-06-25T05:12:00.000Z,50.748
2018-06-25T05:22:00.000Z,50.899
2018-06-25T05:32:00.000Z,50.998
2018-06-25T05:42:00.000Z,50.855
2018-06-25T05:52:00.000Z,50.889
2018-06-25T06:02:00.000Z,50.845
2018-06-25T06:12:00.000Z,50.77
2018-06-25T06:22:00.000Z,50.622
2018-06-25T06:32:00.000Z,50.431
2018-06-25T06:42:00.000Z,50.463
2018-06-25T06:52:00.000Z,50.472
2018-06-25T07:02:00.000Z,50.534
2018-06-25T07:12:00.000Z,52.401
2018-06-25T07:22:00.000Z,52.327
2018-06-25T07:32:00.000Z,52.165
2018-06-25T07:42:00.000Z,52.322
2018-06-25T07:52:00.000Z,51.817
2018-06-25T08:02:00.000Z,52.57
2018-06-25T08:12:00.000Z,52.608
2018-06-25T08:22:00.000Z,52.761
2018-06-25T08:32:00.000Z,52.328
2018-06-25T08:42:00.000Z,52.224
2018-06-25T08:52:00.000Z,52.115
2018-06-25T09:02:00.000Z,52.029
2018-06-25T09:12:00.000Z,51.88
2018-06-25T09:22:00.000Z,51.846
2018-06-25T09:32:00.000Z,51.147
2018-06-25T09:42:00.000Z,51.138
2018-06-25T09:52:00.000Z,50.819
2018-06-25T10:02:01.000Z,50.861
2018-06-25T10:12:01.000Z,50.628
2018-06-25T10:22:01.000Z,50.308
2018-06-25T10:32:01.000Z,50.669
2018-06-25T10:42:01.000Z,49.157
2018-06-25T10:52:01.000Z,50.031
2018-06-25T11:02:01.000Z,49.626
2018-06-25T11:12:01.000Z,49.191
2018-06-25T11:22:01.000Z,48.818
2018-06-25T11:32:01.000Z,49.065
2018-06-25T11:42:01.000Z,48.797
2018-06-25T11:52:01.000Z,48.351
2018-06-25T12:02:03.000Z,48.863
2018-06-25T12:12:01.000Z,47.199
2018-06-25T12:22:01.000Z,48.042
2018-06-25T12:32:01.000Z,47.721
2018-06-25T12:42:01.000Z,47.317
2018-06-25T12:52:01.000Z,46.708
2018-06-25T13:02:02.000Z,47.027
2018-06-25T13:12:01.000Z,46.376
2018-06-25T13:22:01.000Z,46.02
2018-06-25T13:32:01.000Z,46.025
2018-06-25T13:42:01.000Z,45.756
2018-06-25T13:52:01.000Z,45.825
2018-06-25T14:02:01.000Z,45.548
2018-06-25T14:12:01.000Z,45.951
2018-06-25T14:22:01.000Z,45.625
2018-06-25T14:32:01.000Z,44.998
2018-06-25T14:42:01.000Z,45.449
2018-06-25T14:52:01.000Z,45.21
2018-06-25T15:02:01.000Z,44.978
2018-06-25T15:12:01.000Z,45.403
2018-06-25T15:22:01.000Z,45.066
2018-06-25T15:32:01.000Z,45.349
2018-06-25T15:42:01.000Z,45.12
2018-06-25T15:52:01.000Z,45.085
2018-06-25T16:02:01.000Z,45.461
2018-06-25T16:12:01.000Z,44.854
2018-06-25T16:22:01.000Z,44.937
2018-06-25T16:32:01.000Z,44.897
2018-06-25T16:42:01.000Z,45.019
2018-06-25T16:52:01.000Z,44.635
2018-06-25T17:02:01.000Z,45.166
2018-06-25T17:12:02.000Z,44.633
2018-06-25T17:22:01.000Z,44.764
2018-06-25T17:32:01.000Z,44.411
2018-06-25T17:42:02.000Z,44.662
2018-06-25T17:52:01.000Z,44.828
2018-06-25T18:02:01.000Z,45.014
2018-06-25T18:12:02.000Z,44.933
2018-06-25T18:22:02.000Z,45.092
2018-06-25T18:32:02.000Z,44.927
2018-06-25T18:42:02.000Z,45.104
2018-06-25T18:52:02.000Z,45.401
2018-06-25T19:02:02.000Z,45.585
2018-06-25T19:12:02.000Z,47.852
2018-06-25T19:22:02.000Z,48.202
2018-06-25T19:32:02.000Z,48.375
2018-06-25T19:42:02.000Z,48.251
2018-06-25T19:52:02.000Z,48.259
2018-06-25T20:02:02.000Z,48.424
2018-06-25T20:12:06.000Z,48.255
2018-06-25T20:22:02.000Z,48.222
2018-06-25T20:32:02.000Z,48.316
2018-06-25T20:42:02.000Z,48.666
2018-06-25T20:52:02.000Z,48.978
2018-06-25T21:02:02.000Z,48.896
2018-06-25T21:12:02.000Z,48.985
2018-06-25T21:22:02.000Z,49.147
2018-06-25T21:32:02.000Z,49.284
2018-06-25T21:42:05.000Z,49.4
2018-06-25T21:52:02.000Z,49.515
2018-06-25T22:02:02.000Z,49.619
2018-06-25T22:12:02.000Z,49.668
2018-06-25T22:22:02.000Z,49.686
2018-06-25T22:32:02.000Z,49.746
2018-06-25T22:42:03.000Z,49.729
2018-06-25T22:52:02.000Z,49.746
2018-06-25T23:02:04.000Z,49.718
2018-06-25T23:12:02.000Z,49.715
2018-06-25T23:22:02.000Z,49.743
2018-06-25T23:32:02.000Z,49.772
2018-06-25T23:42:04.000Z,49.79
2018-06-25T23:52:02.000Z,49.775
